sensor_id;sensor_type;location;lat;lon;timestamp;temperature;humidity
9768;DHT22;4923;52.520;13.494;2022-12-07T00:01:40;3.10;1.00
9768;DHT22;4923;52.520;13.494;2022-12-07T00:04:29;3.10;99.90
9768;DHT22;4923;52.520;13.494;2022-12-07T00:07:16;3.10;99.90
9768;DHT22;4923;52.520;13.494;2022-12-07T00:10:04;3.10;99.90
9768;DHT22;4923;52.520;13.494;2022-12-07T00:12:51;3.10;99.90
9768;DHT22;4923;52.520;13.494;2022-12-07T00:15:38;3.10;99.90
9768;DHT22;4923;52.520;13.494;2022-12-07T00:18:27;3.10;99.90
9768;DHT22;4923;52.520;13.494;2022-12-07T00:21:18;3.10;99.90
9768;DHT22;4923;52.520;13.494;2022-12-07T00:24:06;3.10;99.90
9768;DHT22;4923;52.520;13.494;2022-12-07T00:26:53;3.10;99.90
9768;DHT22;4923;52.520;13.494;2022-12-07T00:29:40;3.10;99.90
9768;DHT22;4923;52.520;13.494;2022-12-07T00:32:27;3.10;99.90
9768;DHT22;4923;52.520;13.494;2022-12-07T00:35:14;3.20;99.90
9768;DHT22;4923;52.520;13.494;2022-12-07T00:38:02;3.10;99.90
9768;DHT22;4923;52.520;13.494;2022-12-07T00:40:55;3.20;99.90
9768;DHT22;4923;52.520;13.494;2022-12-07T00:43:43;3.20;99.90
9768;DHT22;4923;52.520;13.494;2022-12-07T00:46:30;3.20;99.90
9768;DHT22;4923;52.520;13.494;2022-12-07T00:49:17;3.20;99.90
9768;DHT22;4923;52.520;13.494;2022-12-07T00:52:04;3.10;99.90
9768;DHT22;4923;52.520;13.494;2022-12-07T00:54:55;3.10;99.90
9768;DHT22;4923;52.520;13.494;2022-12-07T00:57:42;3.10;99.90
9768;DHT22;4923;52.520;13.494;2022-12-07T01:00:29;3.00;99.90
9768;DHT22;4923;52.520;13.494;2022-12-07T01:03:16;3.00;99.90
9768;DHT22;4923;52.520;13.494;2022-12-07T01:06:04;3.00;99.90
9768;DHT22;4923;52.520;13.494;2022-12-07T01:08:51;3.00;99.90
9768;DHT22;4923;52.520;13.494;2022-12-07T01:11:40;2.90;99.90
9768;DHT22;4923;52.520;13.494;2022-12-07T01:14:27;2.80;99.90
9768;DHT22;4923;52.520;13.494;2022-12-07T01:17:13;2.70;99.90
9768;DHT22;4923;52.520;13.494;2022-12-07T01:20:01;2.60;99.90
9768;DHT22;4923;52.520;13.494;2022-12-07T01:22:48;2.50;99.90
9768;DHT22;4923;52.520;13.494;2022-12-07T01:25:36;2.50;99.90
9768;DHT22;4923;52.520;13.494;2022-12-07T01:28:24;2.50;99.90
9768;DHT22;4923;52.520;13.494;2022-12-07T01:31:13;2.50;99.90
9768;DHT22;4923;52.520;13.494;2022-12-07T01:34:01;2.50;99.90
9768;DHT22;4923;52.520;13.494;2022-12-07T01:36:49;2.60;99.90
9768;DHT22;4923;52.520;13.494;2022-12-07T01:39:36;2.60;99.90
9768;DHT22;4923;52.520;13.494;2022-12-07T01:42:22;2.60;94.50
9768;DHT22;4923;52.520;13.494;2022-12-07T01:45:44;2.60;82.30
9768;DHT22;4923;52.520;13.494;2022-12-07T01:48:34;2.60;73.20
9768;DHT22;4923;52.520;13.494;2022-12-07T01:51:21;2.60;65.70
9768;DHT22;4923;52.520;13.494;2022-12-07T01:54:09;2.60;63.80
9768;DHT22;4923;52.520;13.494;2022-12-07T01:56:58;2.70;64.10
9768;DHT22;4923;52.520;13.494;2022-12-07T01:59:47;2.70;61.70
9768;DHT22;4923;52.520;13.494;2022-12-07T02:02:39;2.70;53.40
9768;DHT22;4923;52.520;13.494;2022-12-07T02:05:28;2.70;43.40
9768;DHT22;4923;52.520;13.494;2022-12-07T02:08:16;2.70;33.90
9768;DHT22;4923;52.520;13.494;2022-12-07T02:11:05;2.70;26.80
9768;DHT22;4923;52.520;13.494;2022-12-07T02:13:53;2.80;19.30
9768;DHT22;4923;52.520;13.494;2022-12-07T02:16:47;2.80;14.50
9768;DHT22;4923;52.520;13.494;2022-12-07T02:20:05;2.70;1.40
9768;DHT22;4923;52.520;13.494;2022-12-07T02:23:14;2.70;1.00
9768;DHT22;4923;52.520;13.494;2022-12-07T02:29:46;2.80;1.00
9768;DHT22;4923;52.520;13.494;2022-12-07T02:32:42;2.80;1.00
9768;DHT22;4923;52.520;13.494;2022-12-07T02:35:33;2.80;1.00
9768;DHT22;4923;52.520;13.494;2022-12-07T02:38:26;2.80;1.00
9768;DHT22;4923;52.520;13.494;2022-12-07T02:41:18;2.70;1.00
9768;DHT22;4923;52.520;13.494;2022-12-07T02:44:10;2.70;1.00
9768;DHT22;4923;52.520;13.494;2022-12-07T02:47:02;2.70;1.00
9768;DHT22;4923;52.520;13.494;2022-12-07T02:49:50;2.60;1.00
9768;DHT22;4923;52.520;13.494;2022-12-07T02:52:38;2.60;1.00
9768;DHT22;4923;52.520;13.494;2022-12-07T02:55:29;2.60;6.50
9768;DHT22;4923;52.520;13.494;2022-12-07T02:58:28;2.60;13.10
9768;DHT22;4923;52.520;13.494;2022-12-07T03:01:27;2.60;18.50
9768;DHT22;4923;52.520;13.494;2022-12-07T03:04:33;2.60;23.90
9768;DHT22;4923;52.520;13.494;2022-12-07T03:07:26;2.60;34.00
9768;DHT22;4923;52.520;13.494;2022-12-07T03:10:22;2.70;42.30
9768;DHT22;4923;52.520;13.494;2022-12-07T03:13:12;2.70;47.90
9768;DHT22;4923;52.520;13.494;2022-12-07T03:16:08;2.70;55.90
9768;DHT22;4923;52.520;13.494;2022-12-07T03:19:02;2.80;60.30
9768;DHT22;4923;52.520;13.494;2022-12-07T03:21:55;2.80;67.90
9768;DHT22;4923;52.520;13.494;2022-12-07T03:24:47;2.80;65.90
9768;DHT22;4923;52.520;13.494;2022-12-07T03:27:39;2.80;66.70
9768;DHT22;4923;52.520;13.494;2022-12-07T03:30:29;2.80;73.20
9768;DHT22;4923;52.520;13.494;2022-12-07T03:33:21;2.90;77.40
9768;DHT22;4923;52.520;13.494;2022-12-07T03:36:15;2.80;83.10
9768;DHT22;4923;52.520;13.494;2022-12-07T03:39:12;2.90;86.30
9768;DHT22;4923;52.520;13.494;2022-12-07T03:42:02;2.90;91.40
9768;DHT22;4923;52.520;13.494;2022-12-07T03:44:51;2.90;94.50
9768;DHT22;4923;52.520;13.494;2022-12-07T03:47:43;2.90;94.30
9768;DHT22;4923;52.520;13.494;2022-12-07T03:50:38;3.00;95.00
9768;DHT22;4923;52.520;13.494;2022-12-07T03:53:34;3.00;96.80
9768;DHT22;4923;52.520;13.494;2022-12-07T03:56:25;3.00;95.90
9768;DHT22;4923;52.520;13.494;2022-12-07T03:59:14;2.90;93.90
9768;DHT22;4923;52.520;13.494;2022-12-07T04:02:03;3.00;96.90
9768;DHT22;4923;52.520;13.494;2022-12-07T04:04:50;3.00;96.00
9768;DHT22;4923;52.520;13.494;2022-12-07T04:07:37;3.00;96.00
9768;DHT22;4923;52.520;13.494;2022-12-07T04:10:24;3.00;96.30
9768;DHT22;4923;52.520;13.494;2022-12-07T04:13:12;3.00;97.30
9768;DHT22;4923;52.520;13.494;2022-12-07T04:15:59;3.00;98.60
9768;DHT22;4923;52.520;13.494;2022-12-07T04:18:46;3.10;99.90
9768;DHT22;4923;52.520;13.494;2022-12-07T04:21:33;3.00;99.90
9768;DHT22;4923;52.520;13.494;2022-12-07T04:24:20;2.90;99.90
9768;DHT22;4923;52.520;13.494;2022-12-07T04:27:07;2.80;99.90
9768;DHT22;4923;52.520;13.494;2022-12-07T04:29:55;2.80;99.90
9768;DHT22;4923;52.520;13.494;2022-12-07T04:32:44;2.90;99.90
9768;DHT22;4923;52.520;13.494;2022-12-07T04:35:30;2.80;99.90
9768;DHT22;4923;52.520;13.494;2022-12-07T04:38:17;2.80;99.90
9768;DHT22;4923;52.520;13.494;2022-12-07T04:41:05;2.80;99.90
9768;DHT22;4923;52.520;13.494;2022-12-07T04:43:53;2.80;99.90
9768;DHT22;4923;52.520;13.494;2022-12-07T04:46:43;2.90;99.90
9768;DHT22;4923;52.520;13.494;2022-12-07T04:49:30;2.90;99.90
9768;DHT22;4923;52.520;13.494;2022-12-07T04:52:18;2.80;99.90
9768;DHT22;4923;52.520;13.494;2022-12-07T04:55:06;2.90;99.90
9768;DHT22;4923;52.520;13.494;2022-12-07T04:57:53;2.90;99.90
9768;DHT22;4923;52.520;13.494;2022-12-07T05:00:40;2.90;99.90
9768;DHT22;4923;52.520;13.494;2022-12-07T05:03:29;2.90;99.90
9768;DHT22;4923;52.520;13.494;2022-12-07T05:06:16;2.90;99.90
9768;DHT22;4923;52.520;13.494;2022-12-07T05:09:04;2.90;99.90
9768;DHT22;4923;52.520;13.494;2022-12-07T05:11:51;2.90;99.90
9768;DHT22;4923;52.520;13.494;2022-12-07T05:14:39;2.90;99.90
9768;DHT22;4923;52.520;13.494;2022-12-07T05:17:26;3.00;99.90
9768;DHT22;4923;52.520;13.494;2022-12-07T05:20:15;2.90;99.90
9768;DHT22;4923;52.520;13.494;2022-12-07T05:23:02;2.90;99.90
9768;DHT22;4923;52.520;13.494;2022-12-07T05:25:49;3.00;99.90
9768;DHT22;4923;52.520;13.494;2022-12-07T05:28:36;3.00;99.90
9768;DHT22;4923;52.520;13.494;2022-12-07T05:31:24;3.00;99.90
9768;DHT22;4923;52.520;13.494;2022-12-07T05:34:12;3.00;99.90
9768;DHT22;4923;52.520;13.494;2022-12-07T05:37:00;3.10;99.90
9768;DHT22;4923;52.520;13.494;2022-12-07T05:39:50;3.10;99.90
9768;DHT22;4923;52.520;13.494;2022-12-07T05:42:37;3.10;99.90
9768;DHT22;4923;52.520;13.494;2022-12-07T05:45:24;3.10;99.90
9768;DHT22;4923;52.520;13.494;2022-12-07T05:48:11;3.20;99.90
9768;DHT22;4923;52.520;13.494;2022-12-07T05:50:57;3.20;99.90
9768;DHT22;4923;52.520;13.494;2022-12-07T05:53:46;3.20;99.90
9768;DHT22;4923;52.520;13.494;2022-12-07T05:56:33;3.30;99.90
9768;DHT22;4923;52.520;13.494;2022-12-07T05:59:20;3.30;99.90
9768;DHT22;4923;52.520;13.494;2022-12-07T06:02:11;3.30;99.90
9768;DHT22;4923;52.520;13.494;2022-12-07T06:05:00;3.40;99.90
9768;DHT22;4923;52.520;13.494;2022-12-07T06:07:47;3.40;99.90
9768;DHT22;4923;52.520;13.494;2022-12-07T06:10:35;3.40;99.90
9768;DHT22;4923;52.520;13.494;2022-12-07T06:13:22;3.40;99.90
9768;DHT22;4923;52.520;13.494;2022-12-07T06:16:08;3.50;99.90
9768;DHT22;4923;52.520;13.494;2022-12-07T06:18:55;3.50;99.90
9768;DHT22;4923;52.520;13.494;2022-12-07T06:21:45;3.60;99.90
9768;DHT22;4923;52.520;13.494;2022-12-07T06:24:32;3.70;99.90
9768;DHT22;4923;52.520;13.494;2022-12-07T06:27:21;3.70;99.90
9768;DHT22;4923;52.520;13.494;2022-12-07T06:30:08;3.70;99.90
9768;DHT22;4923;52.520;13.494;2022-12-07T06:32:55;3.70;99.90
9768;DHT22;4923;52.520;13.494;2022-12-07T06:35:42;3.80;99.90
9768;DHT22;4923;52.520;13.494;2022-12-07T06:38:29;3.80;99.90
9768;DHT22;4923;52.520;13.494;2022-12-07T06:41:18;3.80;99.90
9768;DHT22;4923;52.520;13.494;2022-12-07T06:44:06;3.80;99.90
9768;DHT22;4923;52.520;13.494;2022-12-07T06:46:54;4.10;99.90
9768;DHT22;4923;52.520;13.494;2022-12-07T06:49:41;4.70;99.90
9768;DHT22;4923;52.520;13.494;2022-12-07T06:52:28;4.50;99.90
9768;DHT22;4923;52.520;13.494;2022-12-07T06:55:15;5.90;99.90
9768;DHT22;4923;52.520;13.494;2022-12-07T06:58:02;5.90;99.90
9768;DHT22;4923;52.520;13.494;2022-12-07T07:00:50;7.20;1.00
9768;DHT22;4923;52.520;13.494;2022-12-07T07:03:37;6.70;99.90
9768;DHT22;4923;52.520;13.494;2022-12-07T07:06:24;5.80;99.90
9768;DHT22;4923;52.520;13.494;2022-12-07T07:09:11;5.30;99.90
9768;DHT22;4923;52.520;13.494;2022-12-07T07:11:58;4.90;99.90
9768;DHT22;4923;52.520;13.494;2022-12-07T07:14:45;4.70;99.90
9768;DHT22;4923;52.520;13.494;2022-12-07T07:17:34;4.70;99.90
9768;DHT22;4923;52.520;13.494;2022-12-07T07:20:21;4.70;99.90
9768;DHT22;4923;52.520;13.494;2022-12-07T07:23:08;4.40;99.90
9768;DHT22;4923;52.520;13.494;2022-12-07T07:25:56;4.30;99.90
9768;DHT22;4923;52.520;13.494;2022-12-07T07:28:43;4.30;99.90
9768;DHT22;4923;52.520;13.494;2022-12-07T07:31:30;4.30;99.90
9768;DHT22;4923;52.520;13.494;2022-12-07T07:34:18;4.40;99.90
9768;DHT22;4923;52.520;13.494;2022-12-07T07:37:05;4.20;99.90
9768;DHT22;4923;52.520;13.494;2022-12-07T07:39:53;4.20;99.90
9768;DHT22;4923;52.520;13.494;2022-12-07T07:42:40;4.20;99.90
9768;DHT22;4923;52.520;13.494;2022-12-07T07:45:27;4.10;99.90
9768;DHT22;4923;52.520;13.494;2022-12-07T07:48:14;4.10;99.90
9768;DHT22;4923;52.520;13.494;2022-12-07T07:51:06;4.10;99.90
9768;DHT22;4923;52.520;13.494;2022-12-07T07:53:54;4.10;99.90
9768;DHT22;4923;52.520;13.494;2022-12-07T07:56:41;4.10;99.90
9768;DHT22;4923;52.520;13.494;2022-12-07T07:59:27;4.10;99.90
9768;DHT22;4923;52.520;13.494;2022-12-07T08:02:16;4.10;99.90
9768;DHT22;4923;52.520;13.494;2022-12-07T08:05:04;4.10;99.90
9768;DHT22;4923;52.520;13.494;2022-12-07T08:07:53;4.20;99.90
9768;DHT22;4923;52.520;13.494;2022-12-07T08:10:39;4.20;99.90
9768;DHT22;4923;52.520;13.494;2022-12-07T08:13:27;4.20;99.90
9768;DHT22;4923;52.520;13.494;2022-12-07T08:16:14;4.20;99.90
9768;DHT22;4923;52.520;13.494;2022-12-07T08:19:00;4.20;99.90
9768;DHT22;4923;52.520;13.494;2022-12-07T08:21:47;4.20;99.90
9768;DHT22;4923;52.520;13.494;2022-12-07T08:24:36;4.20;99.90
9768;DHT22;4923;52.520;13.494;2022-12-07T08:27:23;4.20;99.90
9768;DHT22;4923;52.520;13.494;2022-12-07T08:30:12;4.20;99.90
9768;DHT22;4923;52.520;13.494;2022-12-07T08:33:00;4.20;99.90
9768;DHT22;4923;52.520;13.494;2022-12-07T08:35:46;4.30;92.60
9768;DHT22;4923;52.520;13.494;2022-12-07T08:38:34;4.20;69.00
9768;DHT22;4923;52.520;13.494;2022-12-07T08:41:23;4.30;60.20
9768;DHT22;4923;52.520;13.494;2022-12-07T08:44:10;4.30;61.90
9768;DHT22;4923;52.520;13.494;2022-12-07T08:47:00;4.30;47.20
9768;DHT22;4923;52.520;13.494;2022-12-07T08:49:50;4.30;37.10
9768;DHT22;4923;52.520;13.494;2022-12-07T08:52:40;4.30;26.90
9768;DHT22;4923;52.520;13.494;2022-12-07T08:55:28;4.30;13.10
9768;DHT22;4923;52.520;13.494;2022-12-07T08:58:17;4.20;1.00
9768;DHT22;4923;52.520;13.494;2022-12-07T09:01:04;4.30;1.00
9768;DHT22;4923;52.520;13.494;2022-12-07T09:03:52;4.30;1.00
9768;DHT22;4923;52.520;13.494;2022-12-07T09:06:39;4.30;1.00
9768;DHT22;4923;52.520;13.494;2022-12-07T09:09:26;4.30;1.00
9768;DHT22;4923;52.520;13.494;2022-12-07T09:12:13;4.30;1.00
9768;DHT22;4923;52.520;13.494;2022-12-07T09:15:01;4.30;1.00
9768;DHT22;4923;52.520;13.494;2022-12-07T09:17:48;4.30;1.00
9768;DHT22;4923;52.520;13.494;2022-12-07T09:20:35;4.30;1.00
9768;DHT22;4923;52.520;13.494;2022-12-07T09:23:22;4.30;1.00
9768;DHT22;4923;52.520;13.494;2022-12-07T09:26:09;4.30;1.00
9768;DHT22;4923;52.520;13.494;2022-12-07T09:28:56;4.30;1.00
9768;DHT22;4923;52.520;13.494;2022-12-07T09:31:46;4.20;1.00
9768;DHT22;4923;52.520;13.494;2022-12-07T09:34:33;4.30;1.00
9768;DHT22;4923;52.520;13.494;2022-12-07T09:37:20;4.20;1.00
9768;DHT22;4923;52.520;13.494;2022-12-07T09:40:08;4.10;1.00
9768;DHT22;4923;52.520;13.494;2022-12-07T09:42:55;4.10;1.00
9768;DHT22;4923;52.520;13.494;2022-12-07T09:45:44;4.00;1.00
9768;DHT22;4923;52.520;13.494;2022-12-07T09:48:35;4.00;1.00
9768;DHT22;4923;52.520;13.494;2022-12-07T09:51:23;3.90;1.00
9768;DHT22;4923;52.520;13.494;2022-12-07T09:54:13;3.90;1.00
9768;DHT22;4923;52.520;13.494;2022-12-07T09:57:02;4.00;1.00
9768;DHT22;4923;52.520;13.494;2022-12-07T09:59:49;4.00;1.00
9768;DHT22;4923;52.520;13.494;2022-12-07T10:02:37;3.90;1.00
9768;DHT22;4923;52.520;13.494;2022-12-07T10:05:28;3.90;1.00
9768;DHT22;4923;52.520;13.494;2022-12-07T10:08:17;3.90;1.00
9768;DHT22;4923;52.520;13.494;2022-12-07T10:11:04;3.80;1.00
9768;DHT22;4923;52.520;13.494;2022-12-07T10:14:10;3.80;1.00
9768;DHT22;4923;52.520;13.494;2022-12-07T10:16:58;3.80;1.00
9768;DHT22;4923;52.520;13.494;2022-12-07T10:19:45;3.80;1.00
9768;DHT22;4923;52.520;13.494;2022-12-07T10:22:34;3.90;1.00
9768;DHT22;4923;52.520;13.494;2022-12-07T10:25:24;3.90;1.00
9768;DHT22;4923;52.520;13.494;2022-12-07T10:28:14;4.00;1.00
9768;DHT22;4923;52.520;13.494;2022-12-07T10:31:15;3.90;1.00
9768;DHT22;4923;52.520;13.494;2022-12-07T10:34:03;3.90;1.00
9768;DHT22;4923;52.520;13.494;2022-12-07T10:36:51;3.90;1.00
9768;DHT22;4923;52.520;13.494;2022-12-07T10:39:44;4.00;1.00
9768;DHT22;4923;52.520;13.494;2022-12-07T10:42:31;4.00;1.00
9768;DHT22;4923;52.520;13.494;2022-12-07T10:45:22;4.00;1.00
9768;DHT22;4923;52.520;13.494;2022-12-07T10:48:13;4.10;1.00
9768;DHT22;4923;52.520;13.494;2022-12-07T10:51:10;4.10;1.00
9768;DHT22;4923;52.520;13.494;2022-12-07T10:54:04;4.20;1.00
9768;DHT22;4923;52.520;13.494;2022-12-07T10:57:10;4.20;1.00
9768;DHT22;4923;52.520;13.494;2022-12-07T11:00:13;4.20;1.00
9768;DHT22;4923;52.520;13.494;2022-12-07T11:03:21;4.00;1.00
9768;DHT22;4923;52.520;13.494;2022-12-07T11:06:23;4.00;1.00
9768;DHT22;4923;52.520;13.494;2022-12-07T11:12:36;4.00;1.00
9768;DHT22;4923;52.520;13.494;2022-12-07T11:15:33;4.10;1.00
9768;DHT22;4923;52.520;13.494;2022-12-07T11:18:27;4.20;1.00
9768;DHT22;4923;52.520;13.494;2022-12-07T11:21:20;4.10;1.00
9768;DHT22;4923;52.520;13.494;2022-12-07T11:24:14;4.10;1.00
9768;DHT22;4923;52.520;13.494;2022-12-07T11:27:14;4.10;1.00
9768;DHT22;4923;52.520;13.494;2022-12-07T11:30:18;4.20;1.00
9768;DHT22;4923;52.520;13.494;2022-12-07T11:33:17;4.10;1.00
9768;DHT22;4923;52.520;13.494;2022-12-07T11:36:14;4.10;1.00
9768;DHT22;4923;52.520;13.494;2022-12-07T11:39:12;4.00;1.00
9768;DHT22;4923;52.520;13.494;2022-12-07T11:42:05;4.00;1.00
9768;DHT22;4923;52.520;13.494;2022-12-07T11:44:55;4.10;1.00
9768;DHT22;4923;52.520;13.494;2022-12-07T11:47:48;4.20;1.00
9768;DHT22;4923;52.520;13.494;2022-12-07T11:50:41;4.20;1.00
9768;DHT22;4923;52.520;13.494;2022-12-07T11:53:32;4.20;1.00
9768;DHT22;4923;52.520;13.494;2022-12-07T11:56:23;4.40;1.00
9768;DHT22;4923;52.520;13.494;2022-12-07T11:59:16;4.30;1.00
9768;DHT22;4923;52.520;13.494;2022-12-07T12:02:13;4.40;1.00
9768;DHT22;4923;52.520;13.494;2022-12-07T12:05:13;4.40;1.00
9768;DHT22;4923;52.520;13.494;2022-12-07T12:08:06;4.40;1.00
9768;DHT22;4923;52.520;13.494;2022-12-07T12:11:03;4.50;1.00
9768;DHT22;4923;52.520;13.494;2022-12-07T12:14:24;4.50;1.00
9768;DHT22;4923;52.520;13.494;2022-12-07T12:17:38;4.50;1.00
9768;DHT22;4923;52.520;13.494;2022-12-07T12:20:31;4.50;1.00
9768;DHT22;4923;52.520;13.494;2022-12-07T12:23:22;4.50;1.00
9768;DHT22;4923;52.520;13.494;2022-12-07T12:26:17;4.50;1.00
9768;DHT22;4923;52.520;13.494;2022-12-07T12:29:06;4.50;1.00
9768;DHT22;4923;52.520;13.494;2022-12-07T12:32:07;4.60;1.00
9768;DHT22;4923;52.520;13.494;2022-12-07T12:35:17;4.80;1.00
9768;DHT22;4923;52.520;13.494;2022-12-07T12:38:48;4.80;1.00
9768;DHT22;4923;52.520;13.494;2022-12-07T12:41:59;4.80;1.00
9768;DHT22;4923;52.520;13.494;2022-12-07T12:45:18;4.80;1.00
9768;DHT22;4923;52.520;13.494;2022-12-07T12:48:37;4.80;1.00
9768;DHT22;4923;52.520;13.494;2022-12-07T12:51:36;4.90;1.00
9768;DHT22;4923;52.520;13.494;2022-12-07T12:54:27;4.90;1.00
9768;DHT22;4923;52.520;13.494;2022-12-07T12:57:18;4.90;1.00
9768;DHT22;4923;52.520;13.494;2022-12-07T13:00:18;4.80;1.00
9768;DHT22;4923;52.520;13.494;2022-12-07T13:03:22;4.90;1.00
9768;DHT22;4923;52.520;13.494;2022-12-07T13:06:20;4.90;1.00
9768;DHT22;4923;52.520;13.494;2022-12-07T13:09:23;5.00;1.00
9768;DHT22;4923;52.520;13.494;2022-12-07T13:12:16;4.90;1.00
9768;DHT22;4923;52.520;13.494;2022-12-07T13:15:34;4.90;1.00
9768;DHT22;4923;52.520;13.494;2022-12-07T13:18:34;4.80;1.00
9768;DHT22;4923;52.520;13.494;2022-12-07T13:21:40;4.90;1.00
9768;DHT22;4923;52.520;13.494;2022-12-07T13:24:30;4.90;1.00
9768;DHT22;4923;52.520;13.494;2022-12-07T13:27:19;4.90;1.00
9768;DHT22;4923;52.520;13.494;2022-12-07T13:30:14;4.90;1.00
9768;DHT22;4923;52.520;13.494;2022-12-07T13:33:03;4.90;1.00
9768;DHT22;4923;52.520;13.494;2022-12-07T13:35:56;4.80;1.00
9768;DHT22;4923;52.520;13.494;2022-12-07T13:38:52;4.90;1.00
9768;DHT22;4923;52.520;13.494;2022-12-07T13:41:42;4.80;1.00
9768;DHT22;4923;52.520;13.494;2022-12-07T13:44:39;4.80;1.00
9768;DHT22;4923;52.520;13.494;2022-12-07T13:47:34;4.80;1.00
9768;DHT22;4923;52.520;13.494;2022-12-07T13:50:25;4.80;1.00
9768;DHT22;4923;52.520;13.494;2022-12-07T13:53:13;4.80;1.00
9768;DHT22;4923;52.520;13.494;2022-12-07T13:56:01;4.90;1.00
9768;DHT22;4923;52.520;13.494;2022-12-07T13:58:48;4.90;1.00
9768;DHT22;4923;52.520;13.494;2022-12-07T14:01:36;4.90;1.00
9768;DHT22;4923;52.520;13.494;2022-12-07T14:04:32;4.90;1.00
9768;DHT22;4923;52.520;13.494;2022-12-07T14:07:22;4.90;1.00
9768;DHT22;4923;52.520;13.494;2022-12-07T14:10:24;4.80;1.00
9768;DHT22;4923;52.520;13.494;2022-12-07T14:13:28;4.80;1.00
9768;DHT22;4923;52.520;13.494;2022-12-07T14:16:24;4.80;1.00
9768;DHT22;4923;52.520;13.494;2022-12-07T14:19:42;4.80;1.00
9768;DHT22;4923;52.520;13.494;2022-12-07T14:22:33;4.70;1.00
9768;DHT22;4923;52.520;13.494;2022-12-07T14:25:21;4.70;1.00
9768;DHT22;4923;52.520;13.494;2022-12-07T14:28:26;4.70;1.00
9768;DHT22;4923;52.520;13.494;2022-12-07T14:31:15;4.70;1.00
9768;DHT22;4923;52.520;13.494;2022-12-07T14:34:02;4.70;1.00
9768;DHT22;4923;52.520;13.494;2022-12-07T14:36:51;4.70;1.00
9768;DHT22;4923;52.520;13.494;2022-12-07T14:39:38;4.80;1.00
9768;DHT22;4923;52.520;13.494;2022-12-07T14:42:28;4.70;1.00
9768;DHT22;4923;52.520;13.494;2022-12-07T14:45:18;4.70;1.00
9768;DHT22;4923;52.520;13.494;2022-12-07T14:48:06;4.60;1.00
9768;DHT22;4923;52.520;13.494;2022-12-07T14:50:54;4.60;1.00
9768;DHT22;4923;52.520;13.494;2022-12-07T14:53:47;4.60;1.00
9768;DHT22;4923;52.520;13.494;2022-12-07T14:56:36;4.60;1.00
9768;DHT22;4923;52.520;13.494;2022-12-07T14:59:23;4.50;1.00
9768;DHT22;4923;52.520;13.494;2022-12-07T15:02:11;4.50;1.00
9768;DHT22;4923;52.520;13.494;2022-12-07T15:04:59;4.30;1.00
9768;DHT22;4923;52.520;13.494;2022-12-07T15:07:46;4.40;1.00
9768;DHT22;4923;52.520;13.494;2022-12-07T15:10:35;4.30;1.00
9768;DHT22;4923;52.520;13.494;2022-12-07T15:13:25;4.30;1.00
9768;DHT22;4923;52.520;13.494;2022-12-07T15:16:30;4.20;1.00
9768;DHT22;4923;52.520;13.494;2022-12-07T15:19:19;4.10;1.00
9768;DHT22;4923;52.520;13.494;2022-12-07T15:22:08;4.00;1.00
9768;DHT22;4923;52.520;13.494;2022-12-07T15:24:56;4.00;1.00
9768;DHT22;4923;52.520;13.494;2022-12-07T15:27:44;3.90;1.00
9768;DHT22;4923;52.520;13.494;2022-12-07T15:30:32;3.90;1.00
9768;DHT22;4923;52.520;13.494;2022-12-07T15:33:19;3.90;1.00
9768;DHT22;4923;52.520;13.494;2022-12-07T15:36:07;3.80;1.00
9768;DHT22;4923;52.520;13.494;2022-12-07T15:38:55;3.80;1.00
9768;DHT22;4923;52.520;13.494;2022-12-07T15:41:42;3.70;1.00
9768;DHT22;4923;52.520;13.494;2022-12-07T15:44:31;3.70;1.00
9768;DHT22;4923;52.520;13.494;2022-12-07T15:47:37;3.70;1.00
9768;DHT22;4923;52.520;13.494;2022-12-07T15:50:25;3.70;1.00
9768;DHT22;4923;52.520;13.494;2022-12-07T15:53:14;3.80;1.00
9768;DHT22;4923;52.520;13.494;2022-12-07T15:56:05;3.80;1.00
9768;DHT22;4923;52.520;13.494;2022-12-07T15:58:52;3.80;1.00
9768;DHT22;4923;52.520;13.494;2022-12-07T16:01:40;3.90;1.00
9768;DHT22;4923;52.520;13.494;2022-12-07T16:04:28;3.90;1.00
9768;DHT22;4923;52.520;13.494;2022-12-07T16:07:15;3.90;1.00
9768;DHT22;4923;52.520;13.494;2022-12-07T16:10:03;3.90;1.00
9768;DHT22;4923;52.520;13.494;2022-12-07T16:12:50;4.00;1.00
9768;DHT22;4923;52.520;13.494;2022-12-07T16:15:38;4.00;1.00
9768;DHT22;4923;52.520;13.494;2022-12-07T16:18:26;4.00;1.00
9768;DHT22;4923;52.520;13.494;2022-12-07T16:21:14;4.00;1.00
9768;DHT22;4923;52.520;13.494;2022-12-07T16:24:01;4.00;1.00
9768;DHT22;4923;52.520;13.494;2022-12-07T16:26:48;4.00;1.00
9768;DHT22;4923;52.520;13.494;2022-12-07T16:29:36;3.90;1.00
9768;DHT22;4923;52.520;13.494;2022-12-07T16:32:23;3.90;1.00
9768;DHT22;4923;52.520;13.494;2022-12-07T16:35:12;3.90;1.00
9768;DHT22;4923;52.520;13.494;2022-12-07T16:38:00;3.80;1.00
9768;DHT22;4923;52.520;13.494;2022-12-07T16:40:46;3.80;1.00
9768;DHT22;4923;52.520;13.494;2022-12-07T16:43:34;3.70;1.00
9768;DHT22;4923;52.520;13.494;2022-12-07T16:46:21;3.60;1.00
9768;DHT22;4923;52.520;13.494;2022-12-07T16:49:11;3.50;1.00
9768;DHT22;4923;52.520;13.494;2022-12-07T16:51:59;3.50;1.00
9768;DHT22;4923;52.520;13.494;2022-12-07T16:54:47;3.40;1.00
9768;DHT22;4923;52.520;13.494;2022-12-07T16:57:34;3.40;1.00
9768;DHT22;4923;52.520;13.494;2022-12-07T17:00:21;3.30;1.00
9768;DHT22;4923;52.520;13.494;2022-12-07T17:03:09;3.30;1.00
9768;DHT22;4923;52.520;13.494;2022-12-07T17:05:56;3.30;1.00
9768;DHT22;4923;52.520;13.494;2022-12-07T17:08:45;3.20;1.00
9768;DHT22;4923;52.520;13.494;2022-12-07T17:11:32;3.10;1.00
9768;DHT22;4923;52.520;13.494;2022-12-07T17:14:19;3.10;1.00
9768;DHT22;4923;52.520;13.494;2022-12-07T17:17:24;3.10;1.00
9768;DHT22;4923;52.520;13.494;2022-12-07T17:20:12;3.10;1.00
9768;DHT22;4923;52.520;13.494;2022-12-07T17:23:00;3.00;1.00
9768;DHT22;4923;52.520;13.494;2022-12-07T17:25:48;3.00;1.00
9768;DHT22;4923;52.520;13.494;2022-12-07T17:28:37;2.90;1.00
9768;DHT22;4923;52.520;13.494;2022-12-07T17:31:24;3.00;1.00
9768;DHT22;4923;52.520;13.494;2022-12-07T17:34:13;2.90;1.00
9768;DHT22;4923;52.520;13.494;2022-12-07T17:37:00;2.90;1.00
9768;DHT22;4923;52.520;13.494;2022-12-07T17:39:47;2.90;1.00
9768;DHT22;4923;52.520;13.494;2022-12-07T17:42:35;2.90;1.00
9768;DHT22;4923;52.520;13.494;2022-12-07T17:45:22;2.90;1.00
9768;DHT22;4923;52.520;13.494;2022-12-07T17:48:09;2.80;1.00
9768;DHT22;4923;52.520;13.494;2022-12-07T17:50:59;2.80;1.00
9768;DHT22;4923;52.520;13.494;2022-12-07T17:54:03;2.80;1.00
9768;DHT22;4923;52.520;13.494;2022-12-07T17:56:50;2.80;1.00
9768;DHT22;4923;52.520;13.494;2022-12-07T17:59:39;2.70;1.00
9768;DHT22;4923;52.520;13.494;2022-12-07T18:02:26;2.70;1.00
9768;DHT22;4923;52.520;13.494;2022-12-07T18:05:13;2.70;1.00
9768;DHT22;4923;52.520;13.494;2022-12-07T18:08:00;2.60;1.00
9768;DHT22;4923;52.520;13.494;2022-12-07T18:10:47;2.60;1.00
9768;DHT22;4923;52.520;13.494;2022-12-07T18:13:34;2.60;1.00
9768;DHT22;4923;52.520;13.494;2022-12-07T18:16:24;2.60;1.00
9768;DHT22;4923;52.520;13.494;2022-12-07T18:19:12;2.60;1.00
9768;DHT22;4923;52.520;13.494;2022-12-07T18:22:00;2.50;1.00
9768;DHT22;4923;52.520;13.494;2022-12-07T18:24:47;2.40;1.00
9768;DHT22;4923;52.520;13.494;2022-12-07T18:27:34;2.50;1.00
9768;DHT22;4923;52.520;13.494;2022-12-07T18:30:21;2.50;1.00
9768;DHT22;4923;52.520;13.494;2022-12-07T18:33:10;2.40;1.00
9768;DHT22;4923;52.520;13.494;2022-12-07T18:35:59;2.40;1.00
9768;DHT22;4923;52.520;13.494;2022-12-07T18:38:46;2.30;1.00
9768;DHT22;4923;52.520;13.494;2022-12-07T18:41:33;2.30;1.00
9768;DHT22;4923;52.520;13.494;2022-12-07T18:44:20;2.30;1.00
9768;DHT22;4923;52.520;13.494;2022-12-07T18:47:07;2.20;1.00
9768;DHT22;4923;52.520;13.494;2022-12-07T18:49:55;2.20;1.00